sensor_id;sensor_type;location;lat;lon;timestamp;pressure;altitude;pressure_sealevel;temperature;humidity
59240;BME280;45010;53.640;10.578;2022-12-08T00:00:01;99995.50;;;24.78;34.71
59240;BME280;45010;53.640;10.578;2022-12-08T00:03:01;99963.03;;;24.59;34.80
59240;BME280;45010;53.640;10.578;2022-12-08T00:06:02;99975.19;;;24.72;34.66
59240;BME280;45010;53.640;10.578;2022-12-08T00:12:25;99966.66;;;24.75;34.75
59240;BME280;45010;53.640;10.578;2022-12-08T00:15:25;99955.41;;;24.68;34.91
59240;BME280;45010;53.640;10.578;2022-12-08T00:18:25;99956.75;;;24.70;34.71
59240;BME280;45010;53.640;10.578;2022-12-08T00:21:27;99948.41;;;24.62;34.58
59240;BME280;45010;53.640;10.578;2022-12-08T00:24:33;99952.97;;;24.66;34.90
59240;BME280;45010;53.640;10.578;2022-12-08T00:27:34;99943.59;;;24.64;34.85
59240;BME280;45010;53.640;10.578;2022-12-08T00:30:34;99942.00;;;24.63;34.66
59240;BME280;45010;53.640;10.578;2022-12-08T00:33:34;99932.66;;;24.60;34.96
59240;BME280;45010;53.640;10.578;2022-12-08T00:36:35;99931.03;;;24.59;34.95
59240;BME280;45010;53.640;10.578;2022-12-08T00:39:35;99929.69;;;24.56;35.50
59240;BME280;45010;53.640;10.578;2022-12-08T00:42:35;99917.09;;;24.52;34.76
59240;BME280;45010;53.640;10.578;2022-12-08T00:45:35;99925.88;;;24.52;35.09
59240;BME280;45010;53.640;10.578;2022-12-08T00:48:36;99918.97;;;24.51;34.92
59240;BME280;45010;53.640;10.578;2022-12-08T00:51:37;99918.34;;;24.44;35.00
59240;BME280;45010;53.640;10.578;2022-12-08T00:54:37;99910.91;;;24.46;35.07
59240;BME280;45010;53.640;10.578;2022-12-08T00:57:38;99916.22;;;24.46;34.99
59240;BME280;45010;53.640;10.578;2022-12-08T01:00:42;99893.75;;;24.37;35.13
59240;BME280;45010;53.640;10.578;2022-12-08T01:03:43;99894.81;;;24.36;35.13
59240;BME280;45010;53.640;10.578;2022-12-08T01:06:43;99901.25;;;24.40;35.09
59240;BME280;45010;53.640;10.578;2022-12-08T01:09:44;99902.53;;;24.37;35.13
59240;BME280;45010;53.640;10.578;2022-12-08T01:12:44;99903.31;;;24.33;35.24
59240;BME280;45010;53.640;10.578;2022-12-08T01:15:44;99894.25;;;24.34;35.28
59240;BME280;45010;53.640;10.578;2022-12-08T01:18:45;99899.81;;;24.32;35.18
59240;BME280;45010;53.640;10.578;2022-12-08T01:21:45;99885.59;;;24.21;35.19
59240;BME280;45010;53.640;10.578;2022-12-08T01:24:46;99902.75;;;24.30;35.19
59240;BME280;45010;53.640;10.578;2022-12-08T01:27:46;99890.97;;;24.26;35.21
59240;BME280;45010;53.640;10.578;2022-12-08T01:30:47;99896.78;;;24.23;35.17
59240;BME280;45010;53.640;10.578;2022-12-08T01:33:48;99859.25;;;24.02;35.14
59240;BME280;45010;53.640;10.578;2022-12-08T01:36:48;99888.19;;;24.16;35.49
59240;BME280;45010;53.640;10.578;2022-12-08T01:39:49;99883.91;;;24.15;35.10
59240;BME280;45010;53.640;10.578;2022-12-08T01:42:49;99880.72;;;24.13;35.10
59240;BME280;45010;53.640;10.578;2022-12-08T01:45:50;99882.78;;;24.11;35.43
59240;BME280;45010;53.640;10.578;2022-12-08T01:48:53;99875.06;;;24.09;35.26
59240;BME280;45010;53.640;10.578;2022-12-08T01:52:11;99867.78;;;24.04;35.44
59240;BME280;45010;53.640;10.578;2022-12-08T01:55:27;99867.16;;;23.97;35.54
59240;BME280;45010;53.640;10.578;2022-12-08T01:58:33;99857.03;;;23.94;35.53
59240;BME280;45010;53.640;10.578;2022-12-08T02:01:35;99872.50;;;23.97;35.65
59240;BME280;45010;53.640;10.578;2022-12-08T02:04:35;99869.28;;;23.95;35.39
59240;BME280;45010;53.640;10.578;2022-12-08T02:07:35;99869.75;;;23.92;35.54
59240;BME280;45010;53.640;10.578;2022-12-08T02:10:39;99864.44;;;23.92;35.76
59240;BME280;45010;53.640;10.578;2022-12-08T02:13:42;99864.94;;;23.89;35.80
59240;BME280;45010;53.640;10.578;2022-12-08T02:16:58;99861.69;;;23.87;35.70
59240;BME280;45010;53.640;10.578;2022-12-08T02:20:17;99854.22;;;23.84;35.98
59240;BME280;45010;53.640;10.578;2022-12-08T02:27:20;99843.03;;;23.82;35.63
59240;BME280;45010;53.640;10.578;2022-12-08T02:37:12;99826.97;;;23.76;36.02
59240;BME280;45010;53.640;10.578;2022-12-08T02:40:30;99829.06;;;23.74;35.95
59240;BME280;45010;53.640;10.578;2022-12-08T02:43:41;99826.41;;;23.74;35.71
59240;BME280;45010;53.640;10.578;2022-12-08T02:46:51;99817.88;;;23.72;35.75
59240;BME280;45010;53.640;10.578;2022-12-08T02:49:56;99824.50;;;23.70;35.99
59240;BME280;45010;53.640;10.578;2022-12-08T02:52:57;99818.88;;;23.66;35.91
59240;BME280;45010;53.640;10.578;2022-12-08T02:59:20;99809.69;;;23.57;35.97
59240;BME280;45010;53.640;10.578;2022-12-08T03:06:19;99803.63;;;23.61;35.95
59240;BME280;45010;53.640;10.578;2022-12-08T03:09:31;99797.75;;;23.59;35.92
59240;BME280;45010;53.640;10.578;2022-12-08T03:12:41;99796.13;;;23.58;36.12
59240;BME280;45010;53.640;10.578;2022-12-08T03:15:46;99799.03;;;23.57;36.23
59240;BME280;45010;53.640;10.578;2022-12-08T03:18:52;99790.72;;;23.48;36.07
59240;BME280;45010;53.640;10.578;2022-12-08T03:21:57;99799.53;;;23.54;35.94
59240;BME280;45010;53.640;10.578;2022-12-08T03:25:05;99776.03;;;23.45;36.00
59240;BME280;45010;53.640;10.578;2022-12-08T03:28:05;99784.06;;;23.50;36.07
59240;BME280;45010;53.640;10.578;2022-12-08T03:31:09;99765.88;;;23.42;35.92
59240;BME280;45010;53.640;10.578;2022-12-08T03:34:12;99780.84;;;23.48;36.13
59240;BME280;45010;53.640;10.578;2022-12-08T03:37:14;99773.38;;;23.45;36.33
59240;BME280;45010;53.640;10.578;2022-12-08T03:40:18;99770.13;;;23.43;35.99
59240;BME280;45010;53.640;10.578;2022-12-08T03:43:18;99767.47;;;23.43;36.45
59240;BME280;45010;53.640;10.578;2022-12-08T03:46:21;99771.19;;;23.42;36.07
59240;BME280;45010;53.640;10.578;2022-12-08T03:49:22;99762.66;;;23.40;36.08
59240;BME280;45010;53.640;10.578;2022-12-08T03:52:22;99753.25;;;23.32;36.08
59240;BME280;45010;53.640;10.578;2022-12-08T03:55:23;99765.78;;;23.37;36.39
59240;BME280;45010;53.640;10.578;2022-12-08T03:58:23;99759.13;;;23.34;36.29
59240;BME280;45010;53.640;10.578;2022-12-08T04:01:24;99763.66;;;23.34;36.25
59240;BME280;45010;53.640;10.578;2022-12-08T04:04:24;99756.72;;;23.33;36.23
59240;BME280;45010;53.640;10.578;2022-12-08T04:07:24;99742.84;;;23.31;36.28
59240;BME280;45010;53.640;10.578;2022-12-08T04:10:25;99733.16;;;23.24;36.17
59240;BME280;45010;53.640;10.578;2022-12-08T04:13:25;99744.91;;;23.29;36.26
59240;BME280;45010;53.640;10.578;2022-12-08T04:16:26;99749.44;;;23.28;36.63
59240;BME280;45010;53.640;10.578;2022-12-08T04:19:27;99729.13;;;23.22;36.65
59240;BME280;45010;53.640;10.578;2022-12-08T04:22:28;99734.66;;;23.15;36.43
59240;BME280;45010;53.640;10.578;2022-12-08T04:25:28;99741.13;;;23.24;36.28
59240;BME280;45010;53.640;10.578;2022-12-08T04:28:28;99736.88;;;23.23;36.39
59240;BME280;45010;53.640;10.578;2022-12-08T04:31:29;99743.78;;;23.24;36.35
59240;BME280;45010;53.640;10.578;2022-12-08T04:34:29;99740.00;;;23.20;36.43
59240;BME280;45010;53.640;10.578;2022-12-08T04:37:29;99744.31;;;23.21;36.56
59240;BME280;45010;53.640;10.578;2022-12-08T04:40:30;99737.34;;;23.20;36.81
59240;BME280;45010;53.640;10.578;2022-12-08T04:43:30;99742.66;;;23.20;36.60
59240;BME280;45010;53.640;10.578;2022-12-08T04:46:30;99742.66;;;23.20;36.79
59240;BME280;45010;53.640;10.578;2022-12-08T04:49:31;99739.47;;;23.18;36.46
59240;BME280;45010;53.640;10.578;2022-12-08T04:52:31;99724.47;;;23.12;36.60
59240;BME280;45010;53.640;10.578;2022-12-08T04:55:32;99741.56;;;23.16;36.50
59240;BME280;45010;53.640;10.578;2022-12-08T04:58:32;99745.28;;;23.15;36.60
59240;BME280;45010;53.640;10.578;2022-12-08T05:01:32;99734.00;;;23.08;36.90
59240;BME280;45010;53.640;10.578;2022-12-08T05:04:33;99745.28;;;23.15;36.64
59240;BME280;45010;53.640;10.578;2022-12-08T05:07:33;99745.28;;;23.15;36.57
59240;BME280;45010;53.640;10.578;2022-12-08T05:10:33;99743.66;;;23.14;36.68
59240;BME280;45010;53.640;10.578;2022-12-08T05:13:34;99741.00;;;23.14;37.03
59240;BME280;45010;53.640;10.578;2022-12-08T05:16:35;99745.75;;;23.12;37.05
59240;BME280;45010;53.640;10.578;2022-12-08T05:19:36;99735.13;;;23.12;36.99
59240;BME280;45010;53.640;10.578;2022-12-08T05:22:36;99730.31;;;23.09;36.81
59240;BME280;45010;53.640;10.578;2022-12-08T05:25:36;99733.53;;;23.11;36.78
59240;BME280;45010;53.640;10.578;2022-12-08T05:28:37;99730.31;;;23.09;36.99
59240;BME280;45010;53.640;10.578;2022-12-08T05:31:37;99728.19;;;23.11;37.12
59240;BME280;45010;53.640;10.578;2022-12-08T05:34:37;99732.69;;;23.10;37.18
59240;BME280;45010;53.640;10.578;2022-12-08T05:37:38;99725.00;;;23.09;37.14
59240;BME280;45010;53.640;10.578;2022-12-08T05:40:39;99723.94;;;23.10;36.86
59240;BME280;45010;53.640;10.578;2022-12-08T05:43:39;99725.00;;;23.09;37.07
59240;BME280;45010;53.640;10.578;2022-12-08T05:46:39;99730.31;;;23.09;36.79
59240;BME280;45010;53.640;10.578;2022-12-08T05:49:40;99717.19;;;23.02;36.88
59240;BME280;45010;53.640;10.578;2022-12-08T05:52:40;99719.66;;;23.09;37.33
59240;BME280;45010;53.640;10.578;2022-12-08T05:55:40;99729.56;;;23.14;37.42
59240;BME280;45010;53.640;10.578;2022-12-08T05:58:41;99726.00;;;23.08;37.27
59240;BME280;45010;53.640;10.578;2022-12-08T06:01:42;99734.66;;;23.15;37.35
59240;BME280;45010;53.640;10.578;2022-12-08T06:04:42;99743.16;;;23.17;37.43
59240;BME280;45010;53.640;10.578;2022-12-08T06:07:42;99739.47;;;23.18;37.79
59240;BME280;45010;53.640;10.578;2022-12-08T06:10:44;99727.22;;;23.17;37.88
59240;BME280;45010;53.640;10.578;2022-12-08T06:13:44;99717.63;;;23.16;37.78
59240;BME280;45010;53.640;10.578;2022-12-08T06:16:44;99734.28;;;23.29;38.12
59240;BME280;45010;53.640;10.578;2022-12-08T06:19:45;99725.75;;;23.27;37.90
59240;BME280;45010;53.640;10.578;2022-12-08T06:22:45;99737.34;;;23.37;37.76
59240;BME280;45010;53.640;10.578;2022-12-08T06:25:45;99742.97;;;23.41;37.51
59240;BME280;45010;53.640;10.578;2022-12-08T06:28:47;99750.22;;;23.46;37.59
59240;BME280;45010;53.640;10.578;2022-12-08T06:31:48;99750.53;;;23.49;37.73
59240;BME280;45010;53.640;10.578;2022-12-08T06:34:48;99747.38;;;23.53;37.79
59240;BME280;45010;53.640;10.578;2022-12-08T06:37:48;99749.53;;;23.56;37.51
59240;BME280;45010;53.640;10.578;2022-12-08T06:40:55;99743.13;;;23.51;37.33
59240;BME280;45010;53.640;10.578;2022-12-08T06:43:56;99754.38;;;23.59;37.06
59240;BME280;45010;53.640;10.578;2022-12-08T06:46:56;99755.97;;;23.60;37.07
59240;BME280;45010;53.640;10.578;2022-12-08T06:49:57;99732.66;;;23.45;36.88
59240;BME280;45010;53.640;10.578;2022-12-08T06:52:57;99764.50;;;23.62;36.65
59240;BME280;45010;53.640;10.578;2022-12-08T06:55:58;99761.59;;;23.63;36.86
59240;BME280;45010;53.640;10.578;2022-12-08T06:58:58;99758.69;;;23.65;36.78
59240;BME280;45010;53.640;10.578;2022-12-08T07:01:58;99770.94;;;23.66;36.40
59240;BME280;45010;53.640;10.578;2022-12-08T07:04:58;99757.56;;;23.61;36.80
59240;BME280;45010;53.640;10.578;2022-12-08T07:07:59;99737.78;;;23.51;36.77
59240;BME280;45010;53.640;10.578;2022-12-08T07:11:05;99751.19;;;23.62;37.26
59240;BME280;45010;53.640;10.578;2022-12-08T07:14:06;99763.56;;;23.73;37.29
59240;BME280;45010;53.640;10.578;2022-12-08T07:17:07;99771.06;;;23.76;37.42
59240;BME280;45010;53.640;10.578;2022-12-08T07:20:07;99777.50;;;23.81;37.62
59240;BME280;45010;53.640;10.578;2022-12-08T07:23:07;99774.59;;;23.82;37.85
59240;BME280;45010;53.640;10.578;2022-12-08T07:26:10;99767.66;;;23.81;37.45
59240;BME280;45010;53.640;10.578;2022-12-08T07:29:11;99782.41;;;23.89;37.34
59240;BME280;45010;53.640;10.578;2022-12-08T07:32:11;99778.13;;;23.88;37.10
59240;BME280;45010;53.640;10.578;2022-12-08T07:35:12;99775.47;;;23.88;36.82
59240;BME280;45010;53.640;10.578;2022-12-08T07:38:12;99778.91;;;23.88;36.99
59240;BME280;45010;53.640;10.578;2022-12-08T07:41:17;99779.16;;;23.87;36.59
59240;BME280;45010;53.640;10.578;2022-12-08T07:44:18;99782.63;;;23.87;36.78
59240;BME280;45010;53.640;10.578;2022-12-08T07:47:18;99773.81;;;23.82;36.73
59240;BME280;45010;53.640;10.578;2022-12-08T07:50:19;99783.47;;;23.88;36.70
59240;BME280;45010;53.640;10.578;2022-12-08T07:53:19;99788.78;;;23.88;36.22
59240;BME280;45010;53.640;10.578;2022-12-08T07:56:20;99777.31;;;23.87;36.55
59240;BME280;45010;53.640;10.578;2022-12-08T07:59:20;99779.16;;;23.87;36.04
59240;BME280;45010;53.640;10.578;2022-12-08T08:02:20;99774.91;;;23.86;36.72
59240;BME280;45010;53.640;10.578;2022-12-08T08:05:21;99745.94;;;23.67;36.55
59240;BME280;45010;53.640;10.578;2022-12-08T08:08:22;99773.00;;;23.81;36.05
59240;BME280;45010;53.640;10.578;2022-12-08T08:11:22;99779.13;;;23.82;36.61
59240;BME280;45010;53.640;10.578;2022-12-08T08:14:22;99775.88;;;23.80;36.47
59240;BME280;45010;53.640;10.578;2022-12-08T08:17:23;99771.88;;;23.77;36.78
59240;BME280;45010;53.640;10.578;2022-12-08T08:20:23;99778.50;;;23.74;36.75
59240;BME280;45010;53.640;10.578;2022-12-08T08:23:23;99775.28;;;23.72;36.48
59240;BME280;45010;53.640;10.578;2022-12-08T08:26:24;99766.63;;;23.60;36.57
59240;BME280;45010;53.640;10.578;2022-12-08T08:29:24;99780.06;;;23.70;36.60
59240;BME280;45010;53.640;10.578;2022-12-08T08:32:24;99786.44;;;23.69;36.52
59240;BME280;45010;53.640;10.578;2022-12-08T08:35:25;99788.53;;;23.67;37.02
59240;BME280;45010;53.640;10.578;2022-12-08T08:38:25;99797.56;;;23.66;36.57
59240;BME280;45010;53.640;10.578;2022-12-08T08:41:25;99802.34;;;23.64;37.20
59240;BME280;45010;53.640;10.578;2022-12-08T08:44:26;99797.25;;;23.62;37.15
59240;BME280;45010;53.640;10.578;2022-12-08T08:47:26;99798.56;;;23.60;37.44
59240;BME280;45010;53.640;10.578;2022-12-08T08:50:26;99793.22;;;23.60;37.91
59240;BME280;45010;53.640;10.578;2022-12-08T08:53:27;99805.72;;;23.59;37.80
59240;BME280;45010;53.640;10.578;2022-12-08T08:56:27;99803.88;;;23.60;37.85
59240;BME280;45010;53.640;10.578;2022-12-08T08:59:27;99803.88;;;23.60;38.20
59240;BME280;45010;53.640;10.578;2022-12-08T09:02:28;99805.25;;;23.62;37.89
59240;BME280;45010;53.640;10.578;2022-12-08T09:05:28;99805.00;;;23.64;38.26
59240;BME280;45010;53.640;10.578;2022-12-08T09:08:29;99804.50;;;23.67;38.05
59240;BME280;45010;53.640;10.578;2022-12-08T09:11:30;99810.63;;;23.68;37.85
59240;BME280;45010;53.640;10.578;2022-12-08T09:14:31;99798.31;;;23.61;37.86
59240;BME280;45010;53.640;10.578;2022-12-08T09:17:31;99807.22;;;23.72;37.80
59240;BME280;45010;53.640;10.578;2022-12-08T09:20:33;99781.53;;;23.61;37.89
59240;BME280;45010;53.640;10.578;2022-12-08T09:23:34;99778.38;;;23.64;37.84
59240;BME280;45010;53.640;10.578;2022-12-08T09:26:34;99807.84;;;23.80;37.75
59240;BME280;45010;53.640;10.578;2022-12-08T09:29:35;99803.03;;;23.76;37.60
59240;BME280;45010;53.640;10.578;2022-12-08T09:32:35;99808.97;;;23.84;37.64
59240;BME280;45010;53.640;10.578;2022-12-08T09:35:35;99793.97;;;23.77;37.74
59240;BME280;45010;53.640;10.578;2022-12-08T09:38:36;99802.81;;;23.83;37.75
59240;BME280;45010;53.640;10.578;2022-12-08T09:41:45;99807.97;;;23.90;37.56
59240;BME280;45010;53.640;10.578;2022-12-08T09:44:54;99813.59;;;23.94;37.80
59240;BME280;45010;53.640;10.578;2022-12-08T09:48:11;99793.53;;;23.86;37.42
59240;BME280;45010;53.640;10.578;2022-12-08T09:51:14;99811.81;;;23.99;37.56
59240;BME280;45010;53.640;10.578;2022-12-08T09:54:26;99805.38;;;23.95;37.37
59240;BME280;45010;53.640;10.578;2022-12-08T09:57:30;99778.63;;;23.85;37.59
59240;BME280;45010;53.640;10.578;2022-12-08T10:00:31;99810.00;;;24.05;37.35
59240;BME280;45010;53.640;10.578;2022-12-08T10:03:31;99811.38;;;24.08;37.50
59240;BME280;45010;53.640;10.578;2022-12-08T10:06:55;99805.00;;;24.09;37.32
59240;BME280;45010;53.640;10.578;2022-12-08T10:13:43;99797.56;;;24.11;37.49
59240;BME280;45010;53.640;10.578;2022-12-08T10:16:48;99810.63;;;24.12;37.44
59240;BME280;45010;53.640;10.578;2022-12-08T10:19:55;99773.41;;;23.95;37.59
59240;BME280;45010;53.640;10.578;2022-12-08T10:26:14;99807.22;;;24.17;37.10
59240;BME280;45010;53.640;10.578;2022-12-08T10:29:15;99806.41;;;24.16;37.19
59240;BME280;45010;53.640;10.578;2022-12-08T10:32:19;99815.19;;;24.17;36.92
59240;BME280;45010;53.640;10.578;2022-12-08T10:35:21;99802.88;;;24.11;36.87
59240;BME280;45010;53.640;10.578;2022-12-08T10:38:30;99789.16;;;23.97;36.58
59240;BME280;45010;53.640;10.578;2022-12-08T10:41:31;99814.66;;;24.15;36.69
59240;BME280;45010;53.640;10.578;2022-12-08T10:44:31;99813.06;;;24.14;36.67
59240;BME280;45010;53.640;10.578;2022-12-08T10:47:35;99801.75;;;24.07;36.82
59240;BME280;45010;53.640;10.578;2022-12-08T10:50:54;99803.41;;;24.08;36.56
59240;BME280;45010;53.640;10.578;2022-12-08T10:53:55;99794.72;;;23.95;36.83
59240;BME280;45010;53.640;10.578;2022-12-08T10:56:56;99810.38;;;24.14;36.76
59240;BME280;45010;53.640;10.578;2022-12-08T10:59:57;99808.78;;;24.13;36.50
59240;BME280;45010;53.640;10.578;2022-12-08T11:03:00;99806.13;;;24.13;36.41
59240;BME280;45010;53.640;10.578;2022-12-08T11:06:11;99805.47;;;24.05;36.25
59240;BME280;45010;53.640;10.578;2022-12-08T11:12:18;99801.16;;;23.99;36.32
59240;BME280;45010;53.640;10.578;2022-12-08T11:15:20;99815.66;;;24.09;36.19
59240;BME280;45010;53.640;10.578;2022-12-08T11:18:30;99778.91;;;23.88;36.30
59240;BME280;45010;53.640;10.578;2022-12-08T11:21:37;99816.94;;;24.06;35.93
59240;BME280;45010;53.640;10.578;2022-12-08T11:24:38;99826.78;;;24.05;36.16
59240;BME280;45010;53.640;10.578;2022-12-08T11:27:41;99817.13;;;23.99;36.05
59240;BME280;45010;53.640;10.578;2022-12-08T11:30:45;99824.13;;;24.05;36.00
59240;BME280;45010;53.640;10.578;2022-12-08T11:33:50;99826.78;;;24.05;35.93
59240;BME280;45010;53.640;10.578;2022-12-08T11:36:52;99826.22;;;24.03;35.97
59240;BME280;45010;53.640;10.578;2022-12-08T11:39:55;99816.56;;;23.97;36.11
59240;BME280;45010;53.640;10.578;2022-12-08T11:43:40;99815.50;;;23.98;36.04
59240;BME280;45010;53.640;10.578;2022-12-08T11:49:55;99806.84;;;23.86;36.11
59240;BME280;45010;53.640;10.578;2022-12-08T11:53:01;99815.94;;;23.90;36.40
59240;BME280;45010;53.640;10.578;2022-12-08T11:56:15;99817.00;;;23.89;36.60
59240;BME280;45010;53.640;10.578;2022-12-08T11:59:40;99819.09;;;23.87;36.37
59240;BME280;45010;53.640;10.578;2022-12-08T12:02:47;99824.94;;;23.84;36.52
59240;BME280;45010;53.640;10.578;2022-12-08T12:09:30;99833.97;;;23.83;36.48
59240;BME280;45010;53.640;10.578;2022-12-08T12:19:23;99828.59;;;23.77;36.70
59240;BME280;45010;53.640;10.578;2022-12-08T12:22:25;99828.03;;;23.75;36.77
59240;BME280;45010;53.640;10.578;2022-12-08T12:25:30;99821.28;;;23.68;36.70
59240;BME280;45010;53.640;10.578;2022-12-08T12:28:54;99833.03;;;23.72;36.78
59240;BME280;45010;53.640;10.578;2022-12-08T12:32:05;99837.56;;;23.71;36.79
59240;BME280;45010;53.640;10.578;2022-12-08T12:35:18;99835.66;;;23.67;36.88
59240;BME280;45010;53.640;10.578;2022-12-08T12:38:44;99825.19;;;23.60;37.10
59240;BME280;45010;53.640;10.578;2022-12-08T12:42:02;99837.72;;;23.64;36.85
59240;BME280;45010;53.640;10.578;2022-12-08T12:48:23;99832.09;;;23.61;37.21
59240;BME280;45010;53.640;10.578;2022-12-08T12:51:45;99832.09;;;23.61;37.62
59240;BME280;45010;53.640;10.578;2022-12-08T12:57:53;99841.63;;;23.57;38.20
59240;BME280;45010;53.640;10.578;2022-12-08T13:04:31;99844.03;;;23.58;38.05
59240;BME280;45010;53.640;10.578;2022-12-08T13:07:35;99838.66;;;23.53;37.95
59240;BME280;45010;53.640;10.578;2022-12-08T13:10:57;99838.41;;;23.55;37.93
59240;BME280;45010;53.640;10.578;2022-12-08T13:14:03;99841.63;;;23.57;37.81
59240;BME280;45010;53.640;10.578;2022-12-08T13:17:08;99838.47;;;23.60;37.59
59240;BME280;45010;53.640;10.578;2022-12-08T13:20:20;99835.34;;;23.63;37.95
59240;BME280;45010;53.640;10.578;2022-12-08T13:23:42;99836.94;;;23.64;37.59
59240;BME280;45010;53.640;10.578;2022-12-08T13:26:47;99834.28;;;23.64;37.87
59240;BME280;45010;53.640;10.578;2022-12-08T13:33:30;99841.75;;;23.67;37.77
59240;BME280;45010;53.640;10.578;2022-12-08T13:36:39;99857.56;;;23.74;37.76
59240;BME280;45010;53.640;10.578;2022-12-08T13:39:47;99860.03;;;23.81;37.70
59240;BME280;45010;53.640;10.578;2022-12-08T13:46:40;99831.63;;;23.64;37.50
59240;BME280;45010;53.640;10.578;2022-12-08T13:49:52;99862.53;;;23.87;37.30
59240;BME280;45010;53.640;10.578;2022-12-08T13:52:59;99858.50;;;23.85;37.30
59240;BME280;45010;53.640;10.578;2022-12-08T13:56:01;99861.78;;;23.92;37.47
59240;BME280;45010;53.640;10.578;2022-12-08T14:02:34;99871.69;;;23.97;37.24
59240;BME280;45010;53.640;10.578;2022-12-08T14:05:40;99869.75;;;23.92;37.11
59240;BME280;45010;53.640;10.578;2022-12-08T14:08:45;99885.56;;;23.99;36.93
59240;BME280;45010;53.640;10.578;2022-12-08T14:11:53;99881.84;;;24.00;36.88
59240;BME280;45010;53.640;10.578;2022-12-08T14:14:59;99870.56;;;23.92;37.08
59240;BME280;45010;53.640;10.578;2022-12-08T14:18:00;99877.88;;;24.02;36.87
59240;BME280;45010;53.640;10.578;2022-12-08T14:24:03;99883.75;;;24.04;36.78
59240;BME280;45010;53.640;10.578;2022-12-08T14:27:06;99875.72;;;23.99;36.59
59240;BME280;45010;53.640;10.578;2022-12-08T14:30:19;99890.47;;;24.07;36.89
59240;BME280;45010;53.640;10.578;2022-12-08T14:33:21;99876.72;;;23.93;36.93
59240;BME280;45010;53.640;10.578;2022-12-08T14:36:21;99900.66;;;24.10;36.85
59240;BME280;45010;53.640;10.578;2022-12-08T14:39:21;99909.44;;;24.11;36.70
59240;BME280;45010;53.640;10.578;2022-12-08T14:42:24;99887.16;;;24.00;36.82
59240;BME280;45010;53.640;10.578;2022-12-08T14:45:24;99900.41;;;24.12;36.81
59240;BME280;45010;53.640;10.578;2022-12-08T14:51:35;99912.66;;;24.13;36.76
59240;BME280;45010;53.640;10.578;2022-12-08T14:54:36;99891.19;;;24.02;36.50
59240;BME280;45010;53.640;10.578;2022-12-08T14:57:37;99911.63;;;24.14;36.55
59240;BME280;45010;53.640;10.578;2022-12-08T15:00:44;99894.38;;;23.99;36.61
59240;BME280;45010;53.640;10.578;2022-12-08T15:03:46;99912.97;;;24.16;36.50
59240;BME280;45010;53.640;10.578;2022-12-08T15:07:04;99914.81;;;24.16;36.51
59240;BME280;45010;53.640;10.578;2022-12-08T15:16:37;99921.22;;;24.15;36.40
59240;BME280;45010;53.640;10.578;2022-12-08T15:19:38;99918.31;;;24.16;36.19
59240;BME280;45010;53.640;10.578;2022-12-08T15:22:39;99926.06;;;24.18;36.63
59240;BME280;45010;53.640;10.578;2022-12-08T15:25:39;99925.00;;;24.19;36.32
59240;BME280;45010;53.640;10.578;2022-12-08T15:28:39;99927.66;;;24.19;36.08
59240;BME280;45010;53.640;10.578;2022-12-08T15:31:40;99926.38;;;24.22;36.20
59240;BME280;45010;53.640;10.578;2022-12-08T15:34:40;99933.53;;;24.21;35.93
59240;BME280;45010;53.640;10.578;2022-12-08T15:37:41;99930.25;;;24.14;35.99
59240;BME280;45010;53.640;10.578;2022-12-08T15:40:41;99936.19;;;24.21;35.88
59240;BME280;45010;53.640;10.578;2022-12-08T15:43:41;99942.34;;;24.22;35.99
59240;BME280;45010;53.640;10.578;2022-12-08T15:46:42;99947.69;;;24.22;36.07
59240;BME280;45010;53.640;10.578;2022-12-08T15:49:42;99914.13;;;24.03;35.90
59240;BME280;45010;53.640;10.578;2022-12-08T15:52:43;99935.06;;;24.17;35.80
59240;BME280;45010;53.640;10.578;2022-12-08T15:55:43;99949.84;;;24.25;35.93
59240;BME280;45010;53.640;10.578;2022-12-08T15:58:45;99951.72;;;24.24;35.99
59240;BME280;45010;53.640;10.578;2022-12-08T16:01:45;99948.97;;;24.19;35.95
59240;BME280;45010;53.640;10.578;2022-12-08T16:04:46;99939.63;;;24.16;35.60
59240;BME280;45010;53.640;10.578;2022-12-08T16:07:47;99926.94;;;24.07;35.50
59240;BME280;45010;53.640;10.578;2022-12-08T16:10:48;99937.25;;;24.20;35.83
59240;BME280;45010;53.640;10.578;2022-12-08T16:13:48;99948.53;;;24.27;35.69
59240;BME280;45010;53.640;10.578;2022-12-08T16:16:51;99948.53;;;24.27;35.83
59240;BME280;45010;53.640;10.578;2022-12-08T16:19:52;99952.31;;;24.31;35.76
59240;BME280;45010;53.640;10.578;2022-12-08T16:22:53;99924.69;;;24.15;35.84
59240;BME280;45010;53.640;10.578;2022-12-08T16:25:53;99940.53;;;24.27;35.46
59240;BME280;45010;53.640;10.578;2022-12-08T16:28:54;99953.44;;;24.36;35.67
59240;BME280;45010;53.640;10.578;2022-12-08T16:31:54;99949.72;;;24.37;35.50
59240;BME280;45010;53.640;10.578;2022-12-08T16:34:54;99960.94;;;24.39;35.45
59240;BME280;45010;53.640;10.578;2022-12-08T16:37:55;99955.34;;;24.40;35.62
59240;BME280;45010;53.640;10.578;2022-12-08T16:40:55;99963.13;;;24.42;35.34
59240;BME280;45010;53.640;10.578;2022-12-08T16:44:14;99966.31;;;24.44;35.55
59240;BME280;45010;53.640;10.578;2022-12-08T16:47:14;99973.25;;;24.45;35.43
59240;BME280;45010;53.640;10.578;2022-12-08T16:50:29;99969.53;;;24.46;35.13
59240;BME280;45010;53.640;10.578;2022-12-08T16:53:29;99958.88;;;24.46;35.04
59240;BME280;45010;53.640;10.578;2022-12-08T16:56:30;99948.16;;;24.41;35.18
59240;BME280;45010;53.640;10.578;2022-12-08T16:59:30;99958.63;;;24.48;35.53
59240;BME280;45010;53.640;10.578;2022-12-08T17:02:30;99957.28;;;24.45;35.61
59240;BME280;45010;53.640;10.578;2022-12-08T17:05:31;99966.63;;;24.48;35.42
59240;BME280;45010;53.640;10.578;2022-12-08T17:08:31;99968.31;;;24.54;35.52
59240;BME280;45010;53.640;10.578;2022-12-08T17:11:32;99964.34;;;24.56;35.42
59240;BME280;45010;53.640;10.578;2022-12-08T17:14:33;99963.22;;;24.52;35.42